Terminal Aerodrome Forecast
Issued by NWS

Home | Current Version | Previous Version | Text Only | Print | Product List | Glossary Off
Versions: 1 2 3 4 5 6 7 8 9 10 11 12 13 14 15 16 17 18 19 20

255
FTUS43 KMPX 281848 AAA
TAFRNH
TAF AMD
KRNH 281848Z 2819/2918 09009KT P6SM -SHRA OVC050
     FM282100 06008KT 6SM -RA BR OVC040
     FM290300 04004KT P6SM SCT050 BKN100=

USA.gov is the U.S. government's official web portal to all federal, state and local government web resources and services.